Time;durP1;ratioP1;P1;durP2;ratioP2;P2;SDS_P1;SDS_P2;PMS_P1;PMS_P2;Temp;Humidity;BMP_temperature;BMP_pressure;BME280_temperature;BME280_humidity;BME280_pressure;Samples;Min_cycle;Max_cycle;Signal;HPM_P1;HPM_P2
2022/09/09 00:00:23;;;;;;;6.75;5.63;;;;;;;;;;5117727;27;20131;-86
2022/09/09 00:03:10;;;;;;;9.00;5.90;;;;;;;;;;5126134;27;20091;-86
2022/09/09 00:05:44;;;;;;;6.68;5.70;;;;;;;;;;5126000;27;20046;-87
2022/09/09 00:08:15;;;;;;;6.63;5.80;;;;;;;;;;5122467;27;20363;-86
2022/09/09 00:10:42;;;;;;;7.88;6.13;;;;;;;;;;5149308;27;20091;-86
2022/09/09 00:13:25;;;;;;;6.88;6.10;;;;;;;;;;5129731;27;20501;-86
2022/09/09 00:15:58;;;;;;;7.60;6.28;;;;;;;;;;5144610;27;20087;-86
2022/09/09 00:18:24;;;;;;;;;;;;;;;;;;5126886;27;20046;-86
2022/09/09 00:20:54;;;;;;;7.57;6.30;;;;;;;;;;5125473;27;20369;-86
2022/09/09 00:23:20;;;;;;;9.38;6.53;;;;;;;;;;5120228;27;20534;-85
2022/09/09 00:25:58;;;;;;;7.18;6.32;;;;;;;;;;5144056;27;20082;-85
2022/09/09 00:28:26;;;;;;;8.80;7.47;;;;;;;;;;5127326;27;20058;-85
2022/09/09 00:30:52;;;;;;;9.10;6.88;;;;;;;;;;5151175;27;20049;-86
2022/09/09 00:33:21;;;;;;;7.65;6.60;;;;;;;;;;5130610;27;20129;-86
2022/09/09 00:35:57;;;;;;;7.43;6.70;;;;;;;;;;5145885;27;20511;-86
2022/09/09 00:38:32;;;;;;;9.93;6.85;;;;;;;;;;5147476;27;20046;-86
2022/09/09 00:41:04;;;;;;;9.48;6.70;;;;;;;;;;5130427;27;20099;-86
2022/09/09 00:43:31;;;;;;;7.80;7.10;;;;;;;;;;5146570;27;20130;-86
2022/09/09 00:46:14;;;;;;;7.63;6.65;;;;;;;;;;5128862;27;20047;-85
2022/09/09 00:48:52;;;;;;;9.30;7.60;;;;;;;;;;5126034;27;20066;-85
2022/09/09 00:51:24;;;;;;;9.90;7.97;;;;;;;;;;5128080;27;20058;-86
2022/09/09 00:53:56;;;;;;;10.70;7.30;;;;;;;;;;5128334;27;20125;-86
2022/09/09 00:56:26;;;;;;;9.23;7.10;;;;;;;;;;5146458;27;20043;-85
2022/09/09 00:59:12;;;;;;;9.32;7.60;;;;;;;;;;5129596;27;20042;-85
2022/09/09 01:01:39;;;;;;;8.07;7.28;;;;;;;;;;5133045;27;20038;-85
2022/09/09 01:04:17;;;;;;;9.57;7.10;;;;;;;;;;5127611;27;20050;-86
2022/09/09 01:06:44;;;;;;;8.02;6.68;;;;;;;;;;5138537;27;20043;-85
2022/09/09 01:09:13;;;;;;;9.50;6.80;;;;;;;;;;5133231;27;20065;-86
2022/09/09 01:11:58;;;;;;;7.68;6.88;;;;;;;;;;5130752;27;20046;-85
2022/09/09 01:14:30;;;;;;;10.20;7.25;;;;;;;;;;5127425;27;20043;-86
2022/09/09 01:16:59;;;;;;;9.18;7.20;;;;;;;;;;5133667;27;20046;-86
2022/09/09 01:19:32;;;;;;;8.07;7.28;;;;;;;;;;5127136;27;20402;-86
2022/09/09 01:21:58;;;;;;;;;;;;;;;;;;5117197;27;20121;-86
2022/09/09 01:24:42;;;;;;;8.75;7.13;;;;;;;;;;5144650;27;20013;-86
2022/09/09 01:27:09;;;;;;;9.35;6.78;;;;;;;;;;5127250;27;20138;-85
2022/09/09 01:29:35;;;;;;;8.15;7.05;;;;;;;;;;5129238;27;20554;-85
2022/09/09 01:32:02;;;;;;;7.85;6.90;;;;;;;;;;5128215;27;20039;-85
2022/09/09 01:34:33;;;;;;;8.15;7.30;;;;;;;;;;5125734;27;20050;-86
2022/09/09 01:37:04;;;;;;;13.48;8.00;;;;;;;;;;5125734;27;20051;-85
2022/09/09 01:39:30;;;;;;;8.02;6.82;;;;;;;;;;5136088;27;20046;-84
2022/09/09 01:41:56;;;;;;;9.07;6.88;;;;;;;;;;5151898;27;20490;-86
2022/09/09 01:44:23;;;;;;;13.57;8.00;;;;;;;;;;5152423;27;20051;-85
2022/09/09 01:46:49;;;;;;;10.98;7.35;;;;;;;;;;5142609;27;20058;-85
2022/09/09 01:49:16;;;;;;;11.80;7.50;;;;;;;;;;5150548;27;20046;-86
2022/09/09 01:51:43;;;;;;;10.88;6.95;;;;;;;;;;5155639;27;20039;-86
2022/09/09 01:54:09;;;;;;;12.07;7.95;;;;;;;;;;5131126;27;20481;-86
2022/09/09 01:56:47;;;;;;;8.50;7.60;;;;;;;;;;5147613;27;20046;-84
2022/09/09 01:59:22;;;;;;;9.93;7.25;;;;;;;;;;5121448;27;20035;-85
2022/09/09 02:02:07;;;;;;;8.13;7.18;;;;;;;;;;5132308;27;20535;-85
2022/09/09 02:04:37;;;;;;;9.60;6.82;;;;;;;;;;5130526;27;20039;-86
2022/09/09 02:07:04;;;;;;;8.40;7.35;;;;;;;;;;5131075;27;20114;-86
2022/09/09 02:09:31;;;;;;;9.00;7.50;;;;;;;;;;5132431;27;20051;-86
2022/09/09 02:12:07;;;;;;;9.68;7.20;;;;;;;;;;5156029;27;20062;-85
2022/09/09 02:14:36;;;;;;;7.78;6.93;;;;;;;;;;5136453;27;20485;-85
2022/09/09 02:17:06;;;;;;;8.65;6.88;;;;;;;;;;5126040;27;20050;-86
2022/09/09 02:19:34;;;;;;;11.00;7.32;;;;;;;;;;5148689;27;20043;-86
2022/09/09 02:22:01;;;;;;;10.95;7.88;;;;;;;;;;5150442;27;20079;-86
2022/09/09 02:24:29;;;;;;;8.98;6.78;;;;;;;;;;5125867;27;20421;-86
2022/09/09 02:26:56;;;;;;;8.80;7.53;;;;;;;;;;5137153;27;20043;-86
2022/09/09 02:29:28;;;;;;;9.25;8.35;;;;;;;;;;5134740;27;20499;-85
2022/09/09 02:31:56;;;;;;;10.98;7.70;;;;;;;;;;5155438;27;20138;-86
2022/09/09 02:34:24;;;;;;;8.85;7.38;;;;;;;;;;5127832;27;20478;-86
2022/09/09 02:36:52;;;;;;;7.90;7.10;;;;;;;;;;5147560;27;20046;-85
2022/09/09 02:39:18;;;;;;;9.48;7.85;;;;;;;;;;5151778;27;20087;-86
2022/09/09 02:41:44;;;;;;;8.05;7.10;;;;;;;;;;5147661;27;20237;-86
2022/09/09 02:44:16;;;;;;;9.68;7.80;;;;;;;;;;5151192;27;20042;-85
2022/09/09 02:46:48;;;;;;;9.73;8.20;;;;;;;;;;5151699;27;20035;-85
2022/09/09 02:49:26;;;;;;;12.70;7.65;;;;;;;;;;5143639;27;20050;-86
2022/09/09 02:52:02;;;;;;;8.55;7.63;;;;;;;;;;5147857;27;20043;-85
2022/09/09 02:54:30;;;;;;;10.38;7.30;;;;;;;;;;5145441;27;20062;-86
2022/09/09 02:56:58;;;;;;;11.18;7.88;;;;;;;;;;5132149;27;20137;-85
2022/09/09 02:59:25;;;;;;;9.43;7.70;;;;;;;;;;5151345;27;20043;-85
2022/09/09 03:01:53;;;;;;;8.57;7.57;;;;;;;;;;5149498;27;20134;-85
2022/09/09 03:04:19;;;;;;;10.75;7.82;;;;;;;;;;5128056;27;20153;-86
2022/09/09 03:06:45;;;;;;;10.75;7.70;;;;;;;;;;5121997;27;20074;-85
2022/09/09 03:09:11;;;;;;;11.32;7.68;;;;;;;;;;5131302;27;20081;-85
2022/09/09 03:11:38;;;;;;;8.85;7.50;;;;;;;;;;5149550;27;20042;-85
2022/09/09 03:14:04;;;;;;;8.23;7.25;;;;;;;;;;5131878;27;20043;-85
2022/09/09 03:16:30;;;;;;;9.88;7.82;;;;;;;;;;5149785;27;20537;-85
2022/09/09 03:18:56;;;;;;;11.85;8.45;;;;;;;;;;5145442;27;20038;-86
2022/09/09 03:21:22;;;;;;;9.93;7.25;;;;;;;;;;5126768;27;20058;-85
2022/09/09 03:23:48;;;;;;;8.30;7.28;;;;;;;;;;5129703;27;20059;-85
2022/09/09 03:26:14;;;;;;;9.98;7.53;;;;;;;;;;5126850;27;20067;-84
2022/09/09 03:28:41;;;;;;;7.80;7.00;;;;;;;;;;5130886;27;20066;-85
2022/09/09 03:31:10;;;;;;;7.88;7.07;;;;;;;;;;5148445;27;20068;-86
2022/09/09 03:33:36;;;;;;;8.63;7.18;;;;;;;;;;5147555;27;20045;-85
2022/09/09 03:36:02;;;;;;;8.88;6.93;;;;;;;;;;5122892;27;20174;-85
2022/09/09 03:38:28;;;;;;;9.10;7.13;;;;;;;;;;5130640;27;20129;-85
2022/09/09 03:40:57;;;;;;;9.45;7.55;;;;;;;;;;5131459;27;20107;-86
2022/09/09 03:43:23;;;;;;;9.70;7.90;;;;;;;;;;5141909;27;20043;-85
2022/09/09 03:45:49;;;;;;;9.75;8.00;;;;;;;;;;5148058;27;20039;-85
2022/09/09 03:48:16;;;;;;;10.60;6.90;;;;;;;;;;5151832;27;20880;-86
2022/09/09 03:50:49;;;;;;;11.07;7.50;;;;;;;;;;5134350;27;20034;-85
2022/09/09 03:53:15;;;;;;;8.65;7.20;;;;;;;;;;5132166;27;20043;-86
2022/09/09 03:55:48;;;;;;;10.45;6.93;;;;;;;;;;5141782;27;20030;-85
2022/09/09 03:58:15;;;;;;;9.27;7.50;;;;;;;;;;5124159;27;20043;-84
2022/09/09 04:00:42;;;;;;;9.23;6.50;;;;;;;;;;5142958;27;20038;-85
2022/09/09 04:03:12;;;;;;;11.15;6.97;;;;;;;;;;5117599;27;20528;-86
2022/09/09 04:05:42;;;;;;;7.22;6.45;;;;;;;;;;5124082;27;20057;-85
2022/09/09 04:08:08;;;;;;;7.97;7.03;;;;;;;;;;5123107;27;20489;-85
2022/09/09 04:10:36;;;;;;;9.70;7.18;;;;;;;;;;5146628;27;20058;-84
2022/09/09 04:13:02;;;;;;;12.27;7.10;;;;;;;;;;5130810;27;20055;-85
2022/09/09 04:15:28;;;;;;;9.25;6.78;;;;;;;;;;5149191;27;20797;-84
2022/09/09 04:17:55;;;;;;;9.98;7.05;;;;;;;;;;5147275;27;20950;-85
2022/09/09 04:20:22;;;;;;;9.52;7.50;;;;;;;;;;5124492;27;20051;-85
2022/09/09 04:22:48;;;;;;;8.23;7.18;;;;;;;;;;5126368;27;20496;-85
2022/09/09 04:25:14;;;;;;;10.30;8.15;;;;;;;;;;5134468;27;20043;-84
2022/09/09 04:27:40;;;;;;;11.07;8.68;;;;;;;;;;5145079;27;20115;-84
2022/09/09 04:30:07;;;;;;;10.70;8.38;;;;;;;;;;5146599;27;20046;-85
2022/09/09 04:32:33;;;;;;;12.82;10.15;;;;;;;;;;5124592;27;20046;-84
2022/09/09 04:34:59;;;;;;;14.02;10.38;;;;;;;;;;5146960;27;20038;-84
2022/09/09 04:37:26;;;;;;;14.07;10.93;;;;;;;;;;5130883;27;20852;-84
2022/09/09 04:39:52;;;;;;;16.17;11.70;;;;;;;;;;5145263;27;20046;-83
2022/09/09 04:42:19;;;;;;;13.77;11.65;;;;;;;;;;5128696;27;20055;-84
2022/09/09 04:44:45;;;;;;;16.75;11.82;;;;;;;;;;5152247;27;20077;-84
2022/09/09 04:47:11;;;;;;;15.77;12.82;;;;;;;;;;5128735;27;20066;-84
2022/09/09 04:49:38;;;;;;;16.05;12.57;;;;;;;;;;5151023;27;20045;-85
2022/09/09 04:52:04;;;;;;;14.15;12.05;;;;;;;;;;5127204;27;20042;-86
2022/09/09 04:54:30;;;;;;;14.25;12.77;;;;;;;;;;5149381;27;20042;-85
2022/09/09 04:56:56;;;;;;;15.73;12.52;;;;;;;;;;5130311;27;20058;-85
2022/09/09 04:59:22;;;;;;;14.77;12.60;;;;;;;;;;5128609;27;20031;-84
2022/09/09 05:01:50;;;;;;;17.48;13.02;;;;;;;;;;5144465;27;20047;-84
2022/09/09 05:04:16;;;;;;;15.70;12.23;;;;;;;;;;5143692;27;20046;-85
2022/09/09 05:06:42;;;;;;;16.42;13.32;;;;;;;;;;5122189;27;20381;-85
2022/09/09 05:09:08;;;;;;;16.77;12.88;;;;;;;;;;5128113;27;20485;-84
2022/09/09 05:11:38;;;;;;;14.52;12.73;;;;;;;;;;5122494;27;20046;-84
2022/09/09 05:14:04;;;;;;;15.25;13.45;;;;;;;;;;5162087;27;20421;-86
2022/09/09 05:16:30;;;;;;;16.23;13.07;;;;;;;;;;5137186;27;20531;-85
2022/09/09 05:18:56;;;;;;;17.63;12.02;;;;;;;;;;5133003;27;20079;-88
2022/09/09 05:21:28;;;;;;;15.40;11.95;;;;;;;;;;5145081;27;20466;-85
2022/09/09 05:23:57;;;;;;;14.00;10.90;;;;;;;;;;5137065;27;20601;-83
2022/09/09 05:26:24;;;;;;;15.45;9.77;;;;;;;;;;5138389;27;20086;-84
2022/09/09 05:28:50;;;;;;;10.50;8.10;;;;;;;;;;5120613;27;20047;-84
2022/09/09 05:31:17;;;;;;;11.60;7.70;;;;;;;;;;5116485;27;20051;-84
2022/09/09 05:33:45;;;;;;;9.48;7.40;;;;;;;;;;5139954;27;20034;-84
2022/09/09 05:36:16;;;;;;;7.32;6.60;;;;;;;;;;5117301;27;20103;-82
2022/09/09 05:38:42;;;;;;;9.65;7.32;;;;;;;;;;5132363;27;20046;-84
2022/09/09 05:41:10;;;;;;;9.90;6.93;;;;;;;;;;5123961;27;20072;-82
2022/09/09 05:43:37;;;;;;;9.98;6.25;;;;;;;;;;5133521;27;20042;-83
2022/09/09 05:46:07;;;;;;;8.80;6.70;;;;;;;;;;5116818;27;20047;-82
2022/09/09 05:48:34;;;;;;;10.82;6.88;;;;;;;;;;5145588;27;20042;-84
2022/09/09 05:51:01;;;;;;;9.18;7.15;;;;;;;;;;5136590;27;20410;-84
2022/09/09 05:53:27;;;;;;;11.23;6.80;;;;;;;;;;5113346;28;20406;-84
2022/09/09 05:56:06;;;;;;;8.35;7.00;;;;;;;;;;5114120;28;20054;-85
2022/09/09 05:58:32;;;;;;;9.95;6.88;;;;;;;;;;5127089;27;20050;-85
2022/09/09 06:01:06;;;;;;;8.32;7.03;;;;;;;;;;5125211;27;20618;-86
2022/09/09 06:03:32;;;;;;;8.05;6.78;;;;;;;;;;5131297;28;20051;-84
2022/09/09 06:05:59;;;;;;;8.23;6.97;;;;;;;;;;5137700;27;20049;-84
2022/09/09 06:08:25;;;;;;;9.60;7.55;;;;;;;;;;5113724;28;20047;-84
2022/09/09 06:10:52;;;;;;;11.30;7.75;;;;;;;;;;5112467;28;20035;-84
2022/09/09 06:13:18;;;;;;;8.70;7.80;;;;;;;;;;5150085;27;20085;-84
2022/09/09 06:15:53;;;;;;;10.48;8.88;;;;;;;;;;5130681;27;20402;-83
2022/09/09 06:18:19;;;;;;;10.27;8.20;;;;;;;;;;5117338;28;20047;-84
2022/09/09 06:20:55;;;;;;;12.02;9.05;;;;;;;;;;5112628;28;20067;-84
2022/09/09 06:23:21;;;;;;;12.60;8.48;;;;;;;;;;5116354;27;20044;-84
2022/09/09 06:25:47;;;;;;;10.10;8.70;;;;;;;;;;5144947;27;20058;-82
2022/09/09 06:28:13;;;;;;;10.32;9.23;;;;;;;;;;5154630;27;20050;-82
2022/09/09 06:30:40;;;;;;;10.00;8.93;;;;;;;;;;5124078;27;20043;-83
2022/09/09 06:33:06;;;;;;;12.68;9.43;;;;;;;;;;5116368;27;20397;-83
2022/09/09 06:35:32;;;;;;;12.98;10.43;;;;;;;;;;5117009;27;20498;-83
2022/09/09 06:37:58;;;;;;;11.30;9.40;;;;;;;;;;5130408;27;20076;-82
2022/09/09 06:40:24;;;;;;;10.68;9.45;;;;;;;;;;5146106;27;20063;-83
2022/09/09 06:42:51;;;;;;;10.57;9.48;;;;;;;;;;5116640;27;20525;-83
2022/09/09 06:45:17;;;;;;;12.90;9.88;;;;;;;;;;5115754;27;20413;-83
2022/09/09 06:47:44;;;;;;;15.20;9.80;;;;;;;;;;5126462;27;20051;-83
2022/09/09 06:50:10;;;;;;;13.10;9.95;;;;;;;;;;5125532;27;20045;-84
2022/09/09 06:52:37;;;;;;;10.55;9.02;;;;;;;;;;5152989;27;20038;-83
2022/09/09 06:55:03;;;;;;;11.55;9.38;;;;;;;;;;5150031;27;20079;-83
2022/09/09 06:57:29;;;;;;;11.45;10.27;;;;;;;;;;5136695;27;20071;-83
2022/09/09 06:59:55;;;;;;;12.25;9.80;;;;;;;;;;5120107;27;20047;-83
2022/09/09 07:02:21;;;;;;;14.50;10.70;;;;;;;;;;5143860;27;20043;-83
2022/09/09 07:04:50;;;;;;;10.98;9.80;;;;;;;;;;5117697;27;20057;-84
2022/09/09 07:07:17;;;;;;;12.65;9.40;;;;;;;;;;5117070;27;20494;-84
2022/09/09 07:09:44;;;;;;;10.38;9.23;;;;;;;;;;5119997;27;20387;-83
2022/09/09 07:12:10;;;;;;;12.05;9.52;;;;;;;;;;5124444;27;20073;-84
2022/09/09 07:14:37;;;;;;;10.63;8.98;;;;;;;;;;5138311;27;20076;-82
2022/09/09 07:17:03;;;;;;;12.10;8.75;;;;;;;;;;5144369;27;20050;-83
2022/09/09 07:19:29;;;;;;;11.82;9.65;;;;;;;;;;5151599;27;20031;-83
2022/09/09 07:21:55;;;;;;;10.40;8.85;;;;;;;;;;5127714;27;20045;-84
2022/09/09 07:24:21;;;;;;;9.90;8.75;;;;;;;;;;5151139;27;20051;-84
2022/09/09 07:26:48;;;;;;;12.13;8.45;;;;;;;;;;5126270;27;20087;-83
2022/09/09 07:29:15;;;;;;;9.98;8.18;;;;;;;;;;5119664;27;20498;-83
2022/09/09 07:31:41;;;;;;;9.88;8.63;;;;;;;;;;5127315;27;20168;-83
2022/09/09 07:34:07;;;;;;;9.20;8.20;;;;;;;;;;5119018;27;20055;-84
2022/09/09 07:36:34;;;;;;;8.80;7.70;;;;;;;;;;5132489;27;20038;-84
2022/09/09 07:39:05;;;;;;;8.82;7.57;;;;;;;;;;5141786;27;20043;-83
2022/09/09 07:41:34;;;;;;;9.35;7.88;;;;;;;;;;5141023;27;20039;-84
2022/09/09 07:44:00;;;;;;;9.98;8.35;;;;;;;;;;5144685;27;20477;-84
2022/09/09 07:46:27;;;;;;;9.25;7.85;;;;;;;;;;5127106;27;20039;-84
2022/09/09 07:48:54;;;;;;;11.27;8.55;;;;;;;;;;5124284;27;20047;-84
2022/09/09 07:51:25;;;;;;;9.93;8.57;;;;;;;;;;5145432;27;20130;-84
2022/09/09 07:53:53;;;;;;;11.48;9.15;;;;;;;;;;5154888;27;20039;-86
2022/09/09 07:56:22;;;;;;;12.35;9.05;;;;;;;;;;5141813;27;20047;-84
2022/09/09 07:58:48;;;;;;;9.95;8.93;;;;;;;;;;5122505;27;20043;-84
2022/09/09 08:01:19;;;;;;;11.07;8.13;;;;;;;;;;5131195;27;20385;-84
2022/09/09 08:03:45;;;;;;;8.98;7.65;;;;;;;;;;5148016;27;20121;-84
2022/09/09 08:06:12;;;;;;;8.13;7.28;;;;;;;;;;5144454;27;20035;-85
2022/09/09 08:08:41;;;;;;;8.23;7.03;;;;;;;;;;5121202;27;20086;-85
2022/09/09 08:11:12;;;;;;;8.07;6.47;;;;;;;;;;5115486;27;20106;-85
2022/09/09 08:13:39;;;;;;;9.43;6.63;;;;;;;;;;5118619;27;20150;-84
2022/09/09 08:16:09;;;;;;;8.32;6.38;;;;;;;;;;5134287;27;20087;-84
2022/09/09 08:18:35;;;;;;;8.57;6.57;;;;;;;;;;5123825;27;20058;-84
2022/09/09 08:21:17;;;;;;;6.80;6.10;;;;;;;;;;5129101;27;20038;-86
2022/09/09 08:23:43;;;;;;;7.43;6.10;;;;;;;;;;5115239;27;20050;-86
2022/09/09 08:26:11;;;;;;;10.02;6.00;;;;;;;;;;5124032;27;20043;-86
2022/09/09 08:28:37;;;;;;;10.00;6.05;;;;;;;;;;5144855;27;20239;-84
2022/09/09 08:31:11;;;;;;;8.75;6.15;;;;;;;;;;5149107;27;20039;-85
2022/09/09 08:33:38;;;;;;;7.05;6.28;;;;;;;;;;5131492;27;20089;-85
2022/09/09 08:36:05;;;;;;;7.97;6.18;;;;;;;;;;5126077;27;20046;-85
2022/09/09 08:38:30;;;;;;;8.00;5.93;;;;;;;;;;5145835;27;20054;-85
2022/09/09 08:41:02;;;;;;;6.53;5.32;;;;;;;;;;5128702;27;20140;-85
2022/09/09 08:43:29;;;;;;;8.00;5.82;;;;;;;;;;5143272;27;20055;-86
2022/09/09 08:46:08;;;;;;;8.57;6.03;;;;;;;;;;5113389;27;20035;-84
2022/09/09 08:48:52;;;;;;;7.68;5.85;;;;;;;;;;5146848;27;20046;-86
2022/09/09 08:51:18;;;;;;;7.10;5.80;;;;;;;;;;5133939;27;20130;-85
2022/09/09 08:53:46;;;;;;;7.22;5.97;;;;;;;;;;5131511;27;20092;-87
2022/09/09 08:56:26;;;;;;;6.38;5.32;;;;;;;;;;5132565;27;20043;-85
2022/09/09 08:58:53;;;;;;;6.30;5.70;;;;;;;;;;5133070;27;20050;-85
2022/09/09 09:01:26;;;;;;;8.05;5.63;;;;;;;;;;5132339;27;20039;-85
2022/09/09 09:03:55;;;;;;;8.60;5.80;;;;;;;;;;5129509;27;20061;-86
2022/09/09 09:06:22;;;;;;;8.35;5.32;;;;;;;;;;5120670;27;20035;-86
2022/09/09 09:09:00;;;;;;;10.43;5.30;;;;;;;;;;5114470;27;20046;-86
2022/09/09 09:11:26;;;;;;;7.88;5.28;;;;;;;;;;5132739;27;20039;-86
2022/09/09 09:13:55;;;;;;;9.02;4.72;;;;;;;;;;5116965;27;20047;-86
2022/09/09 09:16:32;;;;;;;10.07;4.88;;;;;;;;;;5132433;27;20103;-84
2022/09/09 09:18:58;;;;;;;7.10;4.47;;;;;;;;;;5139291;27;20047;-83
2022/09/09 09:21:44;;;;;;;6.43;4.40;;;;;;;;;;5146278;27;20039;-86
2022/09/09 09:24:16;;;;;;;6.65;4.68;;;;;;;;;;5133253;27;20055;-85
2022/09/09 09:26:43;;;;;;;5.70;4.47;;;;;;;;;;5143793;27;20039;-85
2022/09/09 09:29:21;;;;;;;8.02;4.43;;;;;;;;;;5121794;27;20035;-85
2022/09/09 09:31:51;;;;;;;6.72;4.60;;;;;;;;;;5113350;27;20071;-86
2022/09/09 09:34:17;;;;;;;10.98;4.88;;;;;;;;;;5128607;27;20473;-83
2022/09/09 09:37:04;;;;;;;7.15;4.32;;;;;;;;;;5128729;27;20050;-84
2022/09/09 09:39:31;;;;;;;7.85;4.70;;;;;;;;;;5152298;27;20042;-85
2022/09/09 09:42:00;;;;;;;7.03;4.35;;;;;;;;;;5114610;27;20386;-85
2022/09/09 09:44:30;;;;;;;7.80;4.20;;;;;;;;;;5129931;27;20057;-85
2022/09/09 09:47:12;;;;;;;7.65;4.20;;;;;;;;;;5145839;27;20083;-87
2022/09/09 09:49:39;;;;;;;7.70;3.92;;;;;;;;;;5138285;27;20047;-85
2022/09/09 09:52:06;;;;;;;6.15;4.03;;;;;;;;;;5118308;27;20434;-87
2022/09/09 09:54:35;;;;;;;5.63;4.28;;;;;;;;;;5120361;27;20371;-86
2022/09/09 09:57:09;;;;;;;8.07;4.22;;;;;;;;;;5112631;27;20506;-86
2022/09/09 09:59:36;;;;;;;5.72;3.90;;;;;;;;;;5133442;27;20084;-86
2022/09/09 10:02:14;;;;;;;9.23;4.05;;;;;;;;;;5117880;27;20046;-86
2022/09/09 10:04:41;;;;;;;6.50;3.58;;;;;;;;;;5134933;27;20043;-86
2022/09/09 10:07:16;;;;;;;6.13;4.00;;;;;;;;;;5140308;27;20043;-87
2022/09/09 10:09:42;;;;;;;6.68;3.25;;;;;;;;;;5138676;27;20076;-85
2022/09/09 10:12:18;;;;;;;5.07;3.15;;;;;;;;;;5127685;27;20047;-86
2022/09/09 10:15:08;;;;;;;7.30;3.03;;;;;;;;;;5144806;27;20479;-90
2022/09/09 10:17:50;;;;;;;6.68;3.05;;;;;;;;;;5135069;27;20500;-88
2022/09/09 10:20:28;;;;;;;3.58;2.30;;;;;;;;;;5117084;27;20059;-88
2022/09/09 10:23:02;;;;;;;4.38;2.85;;;;;;;;;;5128318;27;20051;-88
2022/09/09 10:25:34;;;;;;;7.70;2.40;;;;;;;;;;5144303;27;20055;-88
2022/09/09 10:28:18;;;;;;;4.38;2.42;;;;;;;;;;5147739;27;20466;-86
2022/09/09 10:30:50;;;;;;;5.90;2.72;;;;;;;;;;5118757;27;20042;-89
2022/09/09 10:33:22;;;;;;;4.68;2.72;;;;;;;;;;5116925;27;20122;-89
2022/09/09 10:36:05;;;;;;;5.37;2.50;;;;;;;;;;5116830;27;20213;-89
2022/09/09 10:38:43;;;;;;;6.47;2.40;;;;;;;;;;5120154;27;20130;-89
2022/09/09 10:41:39;;;;;;;4.03;2.20;;;;;;;;;;5127105;27;20041;-89
2022/09/09 10:44:18;;;;;;;5.90;2.42;;;;;;;;;;5104697;27;20125;-88
2022/09/09 10:47:03;;;;;;;5.28;2.75;;;;;;;;;;5144610;27;20092;-89
2022/09/09 10:49:33;;;;;;;3.75;2.40;;;;;;;;;;5143096;27;20054;-88
2022/09/09 10:52:12;;;;;;;5.13;2.10;;;;;;;;;;5127873;27;20066;-90
2022/09/09 10:54:50;;;;;;;5.20;2.20;;;;;;;;;;5124690;27;20095;-87
2022/09/09 10:57:36;;;;;;;4.25;2.30;;;;;;;;;;5119473;27;20051;-87
2022/09/09 11:00:08;;;;;;;9.45;2.63;;;;;;;;;;5149059;27;20099;-86
2022/09/09 11:02:35;;;;;;;4.00;1.90;;;;;;;;;;5135568;27;20494;-87
2022/09/09 11:05:19;;;;;;;6.20;2.20;;;;;;;;;;5139127;27;20045;-89
2022/09/09 11:08:04;;;;;;;6.15;2.38;;;;;;;;;;5147163;27;20543;-87
2022/09/09 11:10:36;;;;;;;5.63;2.00;;;;;;;;;;5145762;27;20042;-87
2022/09/09 11:13:05;;;;;;;6.18;2.20;;;;;;;;;;5143750;27;20539;-88
2022/09/09 11:15:42;;;;;;;4.70;2.20;;;;;;;;;;5127580;27;20046;-87
2022/09/09 11:18:11;;;;;;;3.95;2.63;;;;;;;;;;5126898;27;20230;-88
2022/09/09 11:20:37;;;;;;;6.32;2.33;;;;;;;;;;5144809;27;20050;-87
2022/09/09 11:23:12;;;;;;;5.70;2.10;;;;;;;;;;5115806;27;20501;-89
2022/09/09 11:25:51;;;;;;;4.70;2.33;;;;;;;;;;5123179;27;20099;-86
2022/09/09 11:28:38;;;;;;;4.15;2.10;;;;;;;;;;5115221;27;20123;-87
2022/09/09 11:31:14;;;;;;;5.20;2.45;;;;;;;;;;5123236;27;20398;-88
2022/09/09 11:33:58;;;;;;;5.78;2.15;;;;;;;;;;5114760;27;20050;-87
2022/09/09 11:36:35;;;;;;;3.72;2.35;;;;;;;;;;5150868;27;20051;-88
2022/09/09 11:39:21;;;;;;;3.75;2.50;;;;;;;;;;5136635;27;20541;-87
2022/09/09 11:41:47;;;;;;;5.70;2.28;;;;;;;;;;5130030;27;20100;-87
2022/09/09 11:44:17;;;;;;;6.95;2.30;;;;;;;;;;5117568;27;20454;-87
2022/09/09 11:46:46;;;;;;;5.78;3.10;;;;;;;;;;5124094;27;20047;-88
2022/09/09 11:49:31;;;;;;;7.63;2.42;;;;;;;;;;5141297;27;20526;-88
2022/09/09 11:51:57;;;;;;;4.03;2.10;;;;;;;;;;5125847;27;20073;-89
2022/09/09 11:54:31;;;;;;;3.38;2.05;;;;;;;;;;5135749;27;20046;-88
2022/09/09 11:56:58;;;;;;;3.20;2.00;;;;;;;;;;5129818;27;20303;-88
2022/09/09 11:59:25;;;;;;;6.53;2.50;;;;;;;;;;5133631;27;20046;-87
2022/09/09 12:02:00;;;;;;;4.40;2.22;;;;;;;;;;5122552;27;20447;-88
2022/09/09 12:04:32;;;;;;;6.28;2.38;;;;;;;;;;5116723;27;20095;-89
2022/09/09 12:07:00;;;;;;;3.10;2.38;;;;;;;;;;5143716;27;20043;-88
2022/09/09 12:09:26;;;;;;;5.18;2.45;;;;;;;;;;5115026;27;20045;-87
2022/09/09 12:11:52;;;;;;;6.05;2.70;;;;;;;;;;5144235;27;20368;-88
2022/09/09 12:14:23;;;;;;;3.60;2.53;;;;;;;;;;5163523;27;20041;-87
2022/09/09 12:16:49;;;;;;;5.43;2.88;;;;;;;;;;5118750;27;20482;-87
2022/09/09 12:19:23;;;;;;;6.90;3.13;;;;;;;;;;5124533;27;20543;-88
2022/09/09 12:22:03;;;;;;;5.35;2.70;;;;;;;;;;5138342;27;20428;-89
2022/09/09 12:24:32;;;;;;;5.38;2.90;;;;;;;;;;5146806;27;20494;-90
2022/09/09 12:27:09;;;;;;;5.50;2.70;;;;;;;;;;5128973;27;20175;-90
2022/09/09 12:29:35;;;;;;;3.72;2.47;;;;;;;;;;5130688;27;20117;-89
2022/09/09 12:32:11;;;;;;;3.13;2.60;;;;;;;;;;5162924;27;20569;-89
2022/09/09 12:34:41;;;;;;;7.57;2.58;;;;;;;;;;5158164;27;20062;-85
2022/09/09 12:37:18;;;;;;;6.30;2.78;;;;;;;;;;5134544;27;20108;-86
2022/09/09 12:39:48;;;;;;;6.10;2.55;;;;;;;;;;5118481;27;20078;-89
2022/09/09 12:42:18;;;;;;;6.30;2.47;;;;;;;;;;5135623;27;20042;-90
2022/09/09 12:44:54;;;;;;;4.43;1.92;;;;;;;;;;5115450;27;20104;-87
2022/09/09 12:47:21;;;;;;;2.80;2.00;;;;;;;;;;5123852;27;20041;-88
2022/09/09 12:49:49;;;;;;;2.72;2.30;;;;;;;;;;5121510;27;20049;-87
2022/09/09 12:52:27;;;;;;;4.20;2.40;;;;;;;;;;5118966;27;20047;-88
2022/09/09 12:54:53;;;;;;;4.93;2.53;;;;;;;;;;5126014;27;20035;-90
2022/09/09 12:57:20;;;;;;;6.05;2.70;;;;;;;;;;5131361;27;20111;-88
2022/09/09 12:59:47;;;;;;;5.25;2.25;;;;;;;;;;5146145;27;20077;-89
2022/09/09 13:02:25;;;;;;;4.85;2.60;;;;;;;;;;5152300;27;20046;-90
2022/09/09 13:04:53;;;;;;;6.60;2.70;;;;;;;;;;5143613;27;20100;-89
2022/09/09 13:07:21;;;;;;;6.25;2.40;;;;;;;;;;5148093;27;20039;-89
2022/09/09 13:09:47;;;;;;;3.60;2.50;;;;;;;;;;5124760;27;20047;-88
2022/09/09 13:12:18;;;;;;;5.80;2.42;;;;;;;;;;5145025;27;20537;-90
2022/09/09 13:14:46;;;;;;;5.30;2.70;;;;;;;;;;5133947;27;20057;-89
2022/09/09 13:17:28;;;;;;;5.22;2.40;;;;;;;;;;5162423;27;20557;-87
2022/09/09 13:19:55;;;;;;;6.97;2.85;;;;;;;;;;5142936;27;20070;-89
2022/09/09 13:22:32;;;;;;;6.22;2.88;;;;;;;;;;5154478;27;20537;-88
2022/09/09 13:25:04;;;;;;;4.47;2.53;;;;;;;;;;5138045;27;20058;-88
2022/09/09 13:27:33;;;;;;;5.68;2.67;;;;;;;;;;5139312;27;20082;-89
2022/09/09 13:29:59;;;;;;;4.25;2.60;;;;;;;;;;5127578;27;20084;-89
2022/09/09 13:32:31;;;;;;;7.05;2.65;;;;;;;;;;5148236;27;20051;-89
2022/09/09 13:34:58;;;;;;;4.00;2.28;;;;;;;;;;5120008;27;20062;-88
2022/09/09 13:37:33;;;;;;;6.07;2.40;;;;;;;;;;5170809;27;20046;-89
2022/09/09 13:39:59;;;;;;;3.42;2.28;;;;;;;;;;5147850;27;20039;-88
2022/09/09 13:42:30;;;;;;;5.53;2.30;;;;;;;;;;5132185;27;20047;-88
2022/09/09 13:44:56;;;;;;;5.82;2.40;;;;;;;;;;5147193;27;20039;-86
2022/09/09 13:47:28;;;;;;;3.08;2.03;;;;;;;;;;5142420;27;20039;-88
2022/09/09 13:49:54;;;;;;;4.68;2.10;;;;;;;;;;5145668;27;20055;-87
2022/09/09 13:52:22;;;;;;;4.10;1.90;;;;;;;;;;5150531;27;20044;-89
2022/09/09 13:54:51;;;;;;;3.75;1.60;;;;;;;;;;5136113;27;20046;-86
2022/09/09 13:57:22;;;;;;;2.92;2.00;;;;;;;;;;5151554;27;20402;-84
2022/09/09 13:59:48;;;;;;;3.17;1.70;;;;;;;;;;5124300;27;20085;-85
2022/09/09 14:02:16;;;;;;;2.88;1.50;;;;;;;;;;5168290;27;20046;-85
2022/09/09 14:04:42;;;;;;;2.67;1.60;;;;;;;;;;5156663;27;20051;-85
2022/09/09 14:07:13;;;;;;;4.85;1.95;;;;;;;;;;5119169;27;20083;-85
2022/09/09 14:09:39;;;;;;;2.97;1.70;;;;;;;;;;5116690;27;20565;-87
2022/09/09 14:12:05;;;;;;;1.85;1.70;;;;;;;;;;5120486;27;20485;-85
2022/09/09 14:14:31;;;;;;;5.50;2.35;;;;;;;;;;5115757;27;20085;-85
2022/09/09 14:16:57;;;;;;;3.75;1.60;;;;;;;;;;5134750;27;20140;-86
2022/09/09 14:19:23;;;;;;;3.90;2.03;;;;;;;;;;5145269;27;20554;-86
2022/09/09 14:21:50;;;;;;;4.28;1.92;;;;;;;;;;5135095;27;20588;-86
2022/09/09 14:24:16;;;;;;;4.25;2.00;;;;;;;;;;5115556;28;20529;-85
2022/09/09 14:26:42;;;;;;;2.58;1.60;;;;;;;;;;5114495;27;20039;-85
2022/09/09 14:29:08;;;;;;;2.90;1.85;;;;;;;;;;5148038;27;20041;-87
2022/09/09 14:31:34;;;;;;;2.85;2.03;;;;;;;;;;5120969;27;20130;-86
2022/09/09 14:34:00;;;;;;;4.10;1.70;;;;;;;;;;5133757;27;20400;-86
2022/09/09 14:36:26;;;;;;;3.90;1.70;;;;;;;;;;5126184;27;20489;-83
2022/09/09 14:38:52;;;;;;;3.47;1.90;;;;;;;;;;5152050;27;20402;-82
2022/09/09 14:41:19;;;;;;;5.45;2.17;;;;;;;;;;5129131;27;20039;-82
2022/09/09 14:43:46;;;;;;;2.90;2.13;;;;;;;;;;5145296;27;20400;-83
2022/09/09 14:46:16;;;;;;;2.03;1.90;;;;;;;;;;5153590;27;20439;-80
2022/09/09 14:48:43;;;;;;;3.78;2.33;;;;;;;;;;5154247;27;20153;-81
2022/09/09 14:51:10;;;;;;;3.55;2.20;;;;;;;;;;5135638;27;20046;-81
2022/09/09 14:53:37;;;;;;;2.50;2.28;;;;;;;;;;5149560;27;20038;-80